createdAt,value
2023-04-02T00:00:14.545Z,100.00
2023-04-02T00:02:57.794Z,100.00
2023-04-02T00:05:50.520Z,100.00
2023-04-02T00:08:38.913Z,100.00
2023-04-02T00:11:08.947Z,100.00
2023-04-02T00:13:41.157Z,100.00
2023-04-02T00:16:18.136Z,100.00
2023-04-02T00:18:51.045Z,100.00
2023-04-02T00:21:23.180Z,100.00
2023-04-02T00:23:55.446Z,100.00
2023-04-02T00:26:29.844Z,100.00
2023-04-02T00:28:57.683Z,100.00
2023-04-02T00:31:27.144Z,100.00
2023-04-02T00:33:55.818Z,100.00
2023-04-02T00:36:26.590Z,100.00
2023-04-02T00:39:00.159Z,100.00
2023-04-02T00:41:31.636Z,100.00
2023-04-02T00:44:00.959Z,100.00
2023-04-02T00:46:34.670Z,100.00
2023-04-02T00:49:08.017Z,100.00
2023-04-02T00:51:39.895Z,100.00
2023-04-02T00:54:15.603Z,100.00
2023-04-02T00:56:46.173Z,100.00
2023-04-02T00:59:23.586Z,100.00
2023-04-02T01:01:55.207Z,100.00
2023-04-02T01:04:36.358Z,100.00
2023-04-02T01:07:08.693Z,100.00
2023-04-02T01:09:53.273Z,100.00
2023-04-02T01:12:36.495Z,100.00
2023-04-02T01:15:12.320Z,100.00
2023-04-02T01:17:54.560Z,100.00
2023-04-02T01:20:44.600Z,100.00
2023-04-02T01:23:17.454Z,100.00
2023-04-02T01:25:53.369Z,100.00
2023-04-02T01:28:27.233Z,100.00
2023-04-02T01:30:58.296Z,100.00
2023-04-02T01:33:31.290Z,100.00
2023-04-02T01:36:10.042Z,100.00
2023-04-02T01:38:46.205Z,100.00
2023-04-02T01:41:21.978Z,100.00
2023-04-02T01:43:58.472Z,100.00
2023-04-02T01:46:30.181Z,100.00
2023-04-02T01:49:01.522Z,100.00
2023-04-02T01:51:31.626Z,100.00
2023-04-02T01:54:02.916Z,100.00
2023-04-02T01:56:31.492Z,100.00
2023-04-02T01:59:00.489Z,100.00
2023-04-02T02:01:36.711Z,100.00
2023-04-02T02:04:04.617Z,100.00
2023-04-02T02:06:32.809Z,100.00
2023-04-02T02:09:04.547Z,100.00
2023-04-02T02:11:36.404Z,100.00
2023-04-02T02:14:11.974Z,100.00
2023-04-02T02:16:42.647Z,100.00
2023-04-02T02:19:22.791Z,100.00
2023-04-02T02:21:54.185Z,100.00
2023-04-02T02:24:24.781Z,100.00
2023-04-02T02:27:03.164Z,100.00
2023-04-02T02:29:36.194Z,100.00
2023-04-02T02:32:08.445Z,100.00
2023-04-02T02:34:42.625Z,100.00
2023-04-02T02:37:16.021Z,100.00
2023-04-02T02:39:46.186Z,100.00
2023-04-02T02:42:19.669Z,100.00
2023-04-02T02:44:50.921Z,100.00
2023-04-02T02:47:24.539Z,100.00
2023-04-02T02:49:56.244Z,100.00
2023-04-02T02:52:28.572Z,100.00
2023-04-02T02:55:18.729Z,100.00
2023-04-02T02:58:13.883Z,100.00
2023-04-02T03:00:55.086Z,100.00
2023-04-02T03:03:28.526Z,100.00
2023-04-02T03:06:04.066Z,100.00
2023-04-02T03:08:37.228Z,100.00
2023-04-02T03:11:11.399Z,100.00
2023-04-02T03:13:47.277Z,100.00
2023-04-02T03:16:22.393Z,100.00
2023-04-02T03:18:55.416Z,100.00
2023-04-02T03:21:29.634Z,100.00
2023-04-02T03:24:00.951Z,100.00
2023-04-02T03:26:33.876Z,100.00
2023-04-02T03:29:09.408Z,100.00
2023-04-02T03:31:42.622Z,100.00
2023-04-02T03:34:18.548Z,100.00
2023-04-02T03:36:53.454Z,100.00
2023-04-02T03:39:26.213Z,100.00
2023-04-02T03:41:59.278Z,100.00
2023-04-02T03:44:32.831Z,100.00
2023-04-02T03:47:11.685Z,100.00
2023-04-02T03:49:47.752Z,100.00
2023-04-02T03:52:23.922Z,100.00
2023-04-02T03:54:53.728Z,100.00
2023-04-02T03:57:28.028Z,100.00
2023-04-02T04:00:04.796Z,100.00
2023-04-02T04:02:47.266Z,100.00
2023-04-02T04:05:25.283Z,100.00
2023-04-02T04:08:00.480Z,100.00
2023-04-02T04:10:30.371Z,100.00
2023-04-02T04:13:04.840Z,100.00
2023-04-02T04:15:38.255Z,100.00
2023-04-02T04:18:13.116Z,100.00
2023-04-02T04:20:56.257Z,100.00
2023-04-02T04:23:31.887Z,100.00
2023-04-02T04:26:09.790Z,100.00
2023-04-02T04:28:45.267Z,100.00
2023-04-02T04:31:20.798Z,100.00
2023-04-02T04:33:55.896Z,100.00
2023-04-02T04:36:31.249Z,100.00
2023-04-02T04:39:14.491Z,100.00
2023-04-02T04:41:48.645Z,100.00
2023-04-02T04:44:23.164Z,100.00
2023-04-02T04:46:59.585Z,100.00
2023-04-02T04:49:32.263Z,100.00
2023-04-02T04:52:10.026Z,100.00
2023-04-02T04:54:40.153Z,100.00
2023-04-02T04:57:26.813Z,100.00
2023-04-02T04:59:59.607Z,100.00
2023-04-02T05:02:34.349Z,100.00
2023-04-02T05:05:04.994Z,100.00
2023-04-02T05:07:47.001Z,100.00
2023-04-02T05:10:24.646Z,100.00
2023-04-02T05:12:57.714Z,100.00
2023-04-02T05:15:31.255Z,100.00
2023-04-02T05:18:17.568Z,100.00
2023-04-02T05:20:51.322Z,100.00
2023-04-02T05:23:27.087Z,100.00
2023-04-02T05:26:04.490Z,100.00
2023-04-02T05:28:39.786Z,100.00
2023-04-02T05:31:13.475Z,100.00
2023-04-02T05:33:48.268Z,100.00
2023-04-02T05:36:21.741Z,100.00
2023-04-02T05:38:56.378Z,100.00
2023-04-02T05:41:38.685Z,100.00
2023-04-02T05:44:11.607Z,100.00
2023-04-02T05:46:47.388Z,100.00
2023-04-02T05:49:22.692Z,100.00
2023-04-02T05:51:57.535Z,100.00
2023-04-02T05:54:31.433Z,100.00
2023-04-02T05:57:05.345Z,100.00
2023-04-02T05:59:39.240Z,100.00
2023-04-02T06:02:18.740Z,100.00
2023-04-02T06:04:54.589Z,100.00
2023-04-02T06:07:32.141Z,100.00
2023-04-02T06:10:09.685Z,100.00
2023-04-02T06:12:44.375Z,100.00
2023-04-02T06:15:15.544Z,100.00
2023-04-02T06:17:48.867Z,100.00
2023-04-02T06:20:19.060Z,100.00
2023-04-02T06:22:51.017Z,100.00
2023-04-02T06:25:25.587Z,100.00
2023-04-02T06:27:58.053Z,100.00
2023-04-02T06:30:29.540Z,100.00
2023-04-02T06:32:58.429Z,100.00
2023-04-02T06:35:28.223Z,100.00
2023-04-02T06:38:04.641Z,100.00
2023-04-02T06:40:42.818Z,100.00
2023-04-02T06:43:26.375Z,100.00
2023-04-02T06:46:24.146Z,100.00
2023-04-02T06:49:17.656Z,100.00
2023-04-02T06:51:49.135Z,100.00
2023-04-02T06:54:18.877Z,100.00
2023-04-02T06:56:53.367Z,100.00
2023-04-02T06:59:37.488Z,100.00
2023-04-02T07:02:24.162Z,100.00
2023-04-02T07:04:52.631Z,100.00
2023-04-02T07:07:21.560Z,100.00
2023-04-02T07:09:51.358Z,100.00
2023-04-02T07:12:24.668Z,100.00
2023-04-02T07:14:53.170Z,100.00
2023-04-02T07:17:22.233Z,100.00
2023-04-02T07:19:50.628Z,100.00
2023-04-02T07:22:21.442Z,100.00
2023-04-02T07:24:53.373Z,100.00
2023-04-02T07:27:22.580Z,100.00
2023-04-02T07:29:50.545Z,100.00
2023-04-02T07:32:19.475Z,100.00
2023-04-02T07:34:47.434Z,100.00
2023-04-02T07:37:15.666Z,100.00
2023-04-02T07:39:43.573Z,100.00
2023-04-02T07:42:11.395Z,100.00
2023-04-02T07:44:41.171Z,100.00
2023-04-02T07:47:10.557Z,100.00
2023-04-02T07:49:38.419Z,100.00
2023-04-02T07:52:06.783Z,100.00
2023-04-02T07:54:35.838Z,100.00
2023-04-02T07:57:03.805Z,100.00
2023-04-02T07:59:31.601Z,100.00
2023-04-02T08:02:01.036Z,100.00
2023-04-02T08:04:28.825Z,100.00
2023-04-02T08:06:56.634Z,100.00
2023-04-02T08:09:24.474Z,100.00
2023-04-02T08:11:52.332Z,100.00
2023-04-02T08:14:20.160Z,100.00
2023-04-02T08:16:49.614Z,100.00
2023-04-02T08:19:19.103Z,100.00
2023-04-02T08:21:49.923Z,100.00
2023-04-02T08:24:19.086Z,100.00
2023-04-02T08:26:47.448Z,100.00
2023-04-02T08:29:15.312Z,100.00
2023-04-02T08:31:43.141Z,100.00
2023-04-02T08:34:11.176Z,100.00
2023-04-02T08:36:42.874Z,100.00
2023-04-02T08:39:12.023Z,100.00
2023-04-02T08:41:45.219Z,100.00
2023-04-02T08:44:24.819Z,100.00
2023-04-02T08:46:56.940Z,100.00
2023-04-02T08:49:32.126Z,100.00
2023-04-02T08:52:01.776Z,100.00
2023-04-02T08:54:31.660Z,100.00
2023-04-02T08:57:04.091Z,100.00
2023-04-02T08:59:34.613Z,100.00
2023-04-02T09:02:33.069Z,100.00
2023-04-02T09:05:05.670Z,99.50
2023-04-02T09:07:35.997Z,99.61
2023-04-02T09:10:04.353Z,98.39
2023-04-02T09:12:33.254Z,98.32
2023-04-02T09:15:12.609Z,100.00
2023-04-02T09:17:53.097Z,99.52
2023-04-02T09:20:26.071Z,100.00
2023-04-02T09:22:57.022Z,100.00
2023-04-02T09:25:27.892Z,100.00
2023-04-02T09:27:58.437Z,100.00
2023-04-02T09:30:40.130Z,99.67
2023-04-02T09:33:09.260Z,99.20
2023-04-02T09:35:39.014Z,99.21
2023-04-02T09:38:23.361Z,96.13
2023-04-02T09:40:59.518Z,100.00
2023-04-02T09:43:29.097Z,100.00
2023-04-02T09:45:59.843Z,100.00
2023-04-02T09:48:31.285Z,100.00
2023-04-02T09:51:14.225Z,100.00
2023-04-02T09:53:45.984Z,100.00
2023-04-02T09:56:19.877Z,100.00
2023-04-02T09:59:03.763Z,100.00
2023-04-02T10:01:33.771Z,100.00
2023-04-02T10:04:03.957Z,100.00
2023-04-02T10:06:33.756Z,100.00
2023-04-02T10:09:21.271Z,100.00
2023-04-02T10:11:50.862Z,100.00
2023-04-02T10:14:22.712Z,100.00
2023-04-02T10:16:53.338Z,100.00
2023-04-02T10:19:28.604Z,100.00
2023-04-02T10:21:57.687Z,100.00
2023-04-02T10:24:29.728Z,100.00
2023-04-02T10:27:09.766Z,94.53
2023-04-02T10:29:51.986Z,88.14
2023-04-02T10:32:22.576Z,85.01
2023-04-02T10:34:59.312Z,84.18
2023-04-02T10:38:03.786Z,84.22
2023-04-02T10:40:37.628Z,83.76
2023-04-02T10:43:35.623Z,82.26
2023-04-02T10:46:10.459Z,84.54
2023-04-02T10:48:47.409Z,83.10
2023-04-02T10:51:29.458Z,80.71
2023-04-02T10:54:03.708Z,82.24
2023-04-02T10:56:44.161Z,81.90
2023-04-02T10:59:20.818Z,83.17
2023-04-02T11:01:51.510Z,85.60
2023-04-02T11:04:23.612Z,84.61
2023-04-02T11:07:07.044Z,86.95
2023-04-02T11:09:43.871Z,86.20
2023-04-02T11:12:22.716Z,91.36
2023-04-02T11:14:53.104Z,91.36
2023-04-02T11:17:21.884Z,91.98
2023-04-02T11:19:49.860Z,92.34
2023-04-02T11:22:22.158Z,86.10
2023-04-02T11:24:51.242Z,87.90
2023-04-02T11:27:28.013Z,82.78
2023-04-02T11:30:04.808Z,79.86
2023-04-02T11:32:36.493Z,81.00
2023-04-02T11:35:27.472Z,81.66
2023-04-02T11:37:56.399Z,78.79
2023-04-02T11:40:49.685Z,77.88
2023-04-02T11:43:51.110Z,76.39
2023-04-02T11:46:52.481Z,75.30
2023-04-02T11:50:11.138Z,76.63
2023-04-02T11:52:53.272Z,75.40
2023-04-02T11:55:27.959Z,74.33
2023-04-02T11:58:11.737Z,74.50
2023-04-02T12:01:14.781Z,73.50
2023-04-02T12:04:03.363Z,71.84
2023-04-02T12:06:46.841Z,68.84
2023-04-02T12:09:22.366Z,70.55
2023-04-02T12:11:52.167Z,66.30
2023-04-02T12:14:48.180Z,66.49
2023-04-02T12:17:22.357Z,63.65
2023-04-02T12:19:55.328Z,61.53
2023-04-02T12:22:26.050Z,62.57
2023-04-02T12:24:57.254Z,59.60
2023-04-02T12:27:27.879Z,57.77
2023-04-02T12:29:56.396Z,56.63
2023-04-02T12:32:30.637Z,60.54
2023-04-02T12:35:28.124Z,62.24
2023-04-02T12:37:57.118Z,62.45
2023-04-02T12:40:33.308Z,63.23
2023-04-02T12:43:01.287Z,69.58
2023-04-02T12:45:35.178Z,68.43
2023-04-02T12:48:08.081Z,74.62
2023-04-02T12:50:37.758Z,80.34
2023-04-02T12:53:19.910Z,84.58
2023-04-02T12:55:48.382Z,82.87
2023-04-02T12:58:28.923Z,80.93
2023-04-02T13:01:11.514Z,79.53
2023-04-02T13:03:39.407Z,74.10
2023-04-02T13:06:22.879Z,72.35
2023-04-02T13:08:51.529Z,69.92
2023-04-02T13:11:19.529Z,66.02
2023-04-02T13:13:49.541Z,67.53
2023-04-02T13:16:30.004Z,66.92
2023-04-02T13:19:21.576Z,65.44
2023-04-02T13:21:52.506Z,65.45
2023-04-02T13:24:21.758Z,69.39
2023-04-02T13:26:50.289Z,80.19
2023-04-02T13:29:22.127Z,90.69
2023-04-02T13:31:50.414Z,100.00
2023-04-02T13:34:18.890Z,100.00
2023-04-02T13:36:47.333Z,100.00
2023-04-02T13:39:16.568Z,100.00
2023-04-02T13:41:45.938Z,100.00
2023-04-02T13:44:21.125Z,100.00
2023-04-02T13:46:49.157Z,100.00
2023-04-02T13:49:17.305Z,100.00
2023-04-02T13:51:47.491Z,100.00
2023-04-02T13:54:26.024Z,100.00
2023-04-02T13:56:55.908Z,100.00
2023-04-02T13:59:23.886Z,100.00
2023-04-02T14:01:54.829Z,100.00
2023-04-02T14:04:27.361Z,100.00
2023-04-02T14:07:26.980Z,100.00
2023-04-02T14:10:11.132Z,100.00
2023-04-02T14:12:58.367Z,100.00
2023-04-02T14:15:55.116Z,100.00
2023-04-02T14:18:41.280Z,100.00
2023-04-02T14:21:18.914Z,100.00
2023-04-02T14:24:01.850Z,100.00
2023-04-02T14:26:39.585Z,100.00
2023-04-02T14:29:16.826Z,100.00
2023-04-02T14:31:47.964Z,100.00
2023-04-02T14:34:23.136Z,100.00
2023-04-02T14:37:01.103Z,100.00
2023-04-02T14:39:40.090Z,100.00
2023-04-02T14:42:15.633Z,100.00
2023-04-02T14:44:50.042Z,100.00
2023-04-02T14:47:23.459Z,100.00
2023-04-02T14:49:56.040Z,100.00
2023-04-02T14:52:27.919Z,100.00
2023-04-02T14:55:00.171Z,100.00
2023-04-02T14:57:32.425Z,100.00
2023-04-02T15:00:04.216Z,100.00
2023-04-02T15:02:41.972Z,100.00
2023-04-02T15:05:17.472Z,100.00
2023-04-02T15:07:50.865Z,100.00
2023-04-02T15:10:25.904Z,100.00
2023-04-02T15:12:57.045Z,100.00
2023-04-02T15:15:39.901Z,100.00
2023-04-02T15:18:12.418Z,100.00
2023-04-02T15:20:48.526Z,100.00
2023-04-02T15:23:24.406Z,100.00
2023-04-02T15:26:01.648Z,100.00
2023-04-02T15:28:38.884Z,100.00
2023-04-02T15:31:13.078Z,100.00
2023-04-02T15:33:46.484Z,100.00
2023-04-02T15:36:42.587Z,100.00
2023-04-02T15:39:30.135Z,100.00
2023-04-02T15:42:06.015Z,100.00
2023-04-02T15:44:37.541Z,100.00
2023-04-02T15:47:15.383Z,100.00
2023-04-02T15:49:47.679Z,100.00
2023-04-02T15:52:25.460Z,100.00
2023-04-02T15:55:11.243Z,100.00
2023-04-02T15:57:54.754Z,100.00
2023-04-02T16:00:27.959Z,100.00
2023-04-02T16:03:18.134Z,100.00
2023-04-02T16:05:56.141Z,100.00
2023-04-02T16:08:38.032Z,100.00
2023-04-02T16:11:11.200Z,100.00
2023-04-02T16:13:40.577Z,100.00
2023-04-02T16:16:15.516Z,100.00
2023-04-02T16:18:51.537Z,100.00
2023-04-02T16:21:22.550Z,100.00
2023-04-02T16:23:51.080Z,100.00
2023-04-02T16:26:32.220Z,100.00
2023-04-02T16:29:12.917Z,100.00
2023-04-02T16:31:51.298Z,100.00
2023-04-02T16:34:34.399Z,100.00
2023-04-02T16:37:09.284Z,100.00
2023-04-02T16:39:42.706Z,100.00
2023-04-02T16:42:21.689Z,100.00
2023-04-02T16:44:58.844Z,100.00
2023-04-02T16:47:41.759Z,100.00
2023-04-02T16:50:20.229Z,100.00
2023-04-02T16:52:56.861Z,100.00
2023-04-02T16:55:36.434Z,100.00
2023-04-02T16:58:21.859Z,100.00
2023-04-02T17:00:54.342Z,100.00
2023-04-02T17:04:02.989Z,100.00
2023-04-02T17:06:40.976Z,100.00
2023-04-02T17:09:16.229Z,100.00
2023-04-02T17:11:50.409Z,100.00
2023-04-02T17:14:35.879Z,100.00
2023-04-02T17:17:05.500Z,100.00
2023-04-02T17:19:35.681Z,100.00
2023-04-02T17:22:06.160Z,100.00
2023-04-02T17:24:40.069Z,100.00
2023-04-02T17:27:18.171Z,100.00
2023-04-02T17:29:52.882Z,100.00
2023-04-02T17:32:27.277Z,100.00
2023-04-02T17:34:56.729Z,100.00
2023-04-02T17:37:33.272Z,100.00
2023-04-02T17:40:14.941Z,100.00
2023-04-02T17:42:53.826Z,100.00
2023-04-02T17:45:27.931Z,100.00
2023-04-02T17:48:03.056Z,100.00
2023-04-02T17:50:49.635Z,100.00
2023-04-02T17:53:29.220Z,100.00
2023-04-02T17:56:12.018Z,100.00
2023-04-02T17:59:00.678Z,100.00
2023-04-02T18:01:34.302Z,100.00
2023-04-02T18:04:19.787Z,100.00
2023-04-02T18:07:10.850Z,100.00
2023-04-02T18:09:45.844Z,100.00
2023-04-02T18:12:31.389Z,100.00
2023-04-02T18:15:26.340Z,100.00
2023-04-02T18:18:01.240Z,100.00
2023-04-02T18:20:34.120Z,100.00
2023-04-02T18:23:12.309Z,100.00
2023-04-02T18:25:52.290Z,100.00
2023-04-02T18:28:47.306Z,100.00
2023-04-02T18:31:25.016Z,100.00
2023-04-02T18:34:13.155Z,100.00
2023-04-02T18:36:52.525Z,100.00
2023-04-02T18:39:32.204Z,100.00
2023-04-02T18:42:10.899Z,100.00
2023-04-02T18:44:53.620Z,100.00
2023-04-02T18:47:27.788Z,100.00
2023-04-02T18:50:11.866Z,100.00
2023-04-02T18:52:40.718Z,100.00
2023-04-02T18:55:16.954Z,100.00
2023-04-02T18:57:49.693Z,100.00
2023-04-02T19:00:28.539Z,100.00
2023-04-02T19:03:01.450Z,100.00
2023-04-02T19:05:41.301Z,100.00
2023-04-02T19:08:17.617Z,100.00
2023-04-02T19:10:48.411Z,100.00
2023-04-02T19:13:18.103Z,100.00
2023-04-02T19:16:38.865Z,100.00
2023-04-02T19:19:19.232Z,100.00
2023-04-02T19:22:02.777Z,100.00
2023-04-02T19:24:46.703Z,100.00
2023-04-02T19:27:25.613Z,100.00
2023-04-02T19:30:04.688Z,100.00
2023-04-02T19:32:40.062Z,100.00
2023-04-02T19:35:18.430Z,100.00
2023-04-02T19:37:57.404Z,100.00
2023-04-02T19:40:36.365Z,100.00
2023-04-02T19:43:08.069Z,100.00
2023-04-02T19:45:39.663Z,100.00
2023-04-02T19:48:14.949Z,100.00
2023-04-02T19:50:42.967Z,100.00
2023-04-02T19:53:11.140Z,100.00
2023-04-02T19:55:40.949Z,100.00
2023-04-02T19:58:19.966Z,100.00
2023-04-02T20:00:47.931Z,100.00
2023-04-02T20:03:16.754Z,100.00
2023-04-02T20:05:44.672Z,100.00
2023-04-02T20:08:12.569Z,100.00
2023-04-02T20:10:42.793Z,100.00
2023-04-02T20:13:14.377Z,100.00
2023-04-02T20:15:43.195Z,100.00
2023-04-02T20:18:11.596Z,100.00
2023-04-02T20:20:40.103Z,100.00
2023-04-02T20:23:08.029Z,100.00
2023-04-02T20:25:37.117Z,100.00
2023-04-02T20:28:07.441Z,100.00
2023-04-02T20:30:39.127Z,100.00
2023-04-02T20:33:08.416Z,100.00
2023-04-02T20:35:37.763Z,100.00
2023-04-02T20:38:07.947Z,100.00
2023-04-02T20:40:36.015Z,100.00
2023-04-02T20:43:04.353Z,100.00
2023-04-02T20:45:32.290Z,100.00
2023-04-02T20:48:01.986Z,100.00
2023-04-02T20:50:30.389Z,100.00
2023-04-02T20:52:59.798Z,100.00
2023-04-02T20:55:27.840Z,100.00
2023-04-02T20:57:56.005Z,100.00
2023-04-02T21:00:27.934Z,100.00
2023-04-02T21:02:55.980Z,100.00
2023-04-02T21:05:27.749Z,100.00
2023-04-02T21:07:55.732Z,100.00
2023-04-02T21:10:23.591Z,100.00
2023-04-02T21:12:51.370Z,100.00
2023-04-02T21:15:19.101Z,100.00
2023-04-02T21:17:51.958Z,100.00
2023-04-02T21:20:19.873Z,100.00
2023-04-02T21:22:49.013Z,100.00
2023-04-02T21:25:16.769Z,100.00
2023-04-02T21:27:45.909Z,100.00
2023-04-02T21:30:14.166Z,100.00
2023-04-02T21:32:42.457Z,100.00
2023-04-02T21:35:10.656Z,100.00
2023-04-02T21:37:38.484Z,100.00
2023-04-02T21:40:09.653Z,100.00
2023-04-02T21:42:37.362Z,100.00
2023-04-02T21:45:05.898Z,100.00
2023-04-02T21:47:33.744Z,100.00
2023-04-02T21:50:01.474Z,100.00
2023-04-02T21:52:29.219Z,100.00
2023-04-02T21:54:56.945Z,100.00
2023-04-02T21:57:26.279Z,100.00
2023-04-02T21:59:56.799Z,100.00
2023-04-02T22:02:24.646Z,100.00
2023-04-02T22:04:53.392Z,100.00
2023-04-02T22:07:21.136Z,100.00
2023-04-02T22:09:48.919Z,100.00
2023-04-02T22:12:16.960Z,100.00
2023-04-02T22:14:46.082Z,100.00
2023-04-02T22:17:13.891Z,100.00
2023-04-02T22:19:42.776Z,100.00
2023-04-02T22:22:10.622Z,100.00
2023-04-02T22:24:38.776Z,100.00
2023-04-02T22:27:06.615Z,100.00
2023-04-02T22:29:34.685Z,100.00
2023-04-02T22:32:03.870Z,100.00
2023-04-02T22:34:31.749Z,100.00
2023-04-02T22:37:00.501Z,100.00
2023-04-02T22:39:28.352Z,100.00
2023-04-02T22:41:56.258Z,100.00
2023-04-02T22:44:24.190Z,100.00
2023-04-02T22:46:52.203Z,100.00
2023-04-02T22:49:21.472Z,100.00
2023-04-02T22:51:49.224Z,100.00
2023-04-02T22:54:17.223Z,100.00
2023-04-02T22:56:45.091Z,100.00
2023-04-02T22:59:12.951Z,100.00
2023-04-02T23:01:41.038Z,100.00
2023-04-02T23:04:09.663Z,100.00
2023-04-02T23:06:38.837Z,100.00
2023-04-02T23:09:06.640Z,100.00
2023-04-02T23:11:34.555Z,100.00
2023-04-02T23:14:02.372Z,100.00
2023-04-02T23:16:30.621Z,100.00
2023-04-02T23:18:58.625Z,100.00
2023-04-02T23:21:27.560Z,100.00
2023-04-02T23:23:56.895Z,100.00
2023-04-02T23:26:27.547Z,100.00
2023-04-02T23:28:55.586Z,100.00
2023-04-02T23:31:24.372Z,100.00
2023-04-02T23:33:53.367Z,100.00
2023-04-02T23:36:23.623Z,100.00
2023-04-02T23:38:55.115Z,100.00
2023-04-02T23:41:26.896Z,100.00
2023-04-02T23:43:55.555Z,100.00
2023-04-02T23:46:23.838Z,100.00
2023-04-02T23:48:51.877Z,100.00
2023-04-02T23:51:19.914Z,100.00
2023-04-02T23:53:48.366Z,100.00
2023-04-02T23:56:16.412Z,100.00
2023-04-02T23:58:46.081Z,100.00
